createdAt,value
2019-01-24T00:01:10.668Z,85.08
2019-01-24T00:06:29.947Z,85.55
2019-01-24T00:11:48.815Z,85.19
2019-01-24T00:17:08.300Z,85.62
2019-01-24T00:22:26.560Z,85.78
2019-01-24T00:27:45.720Z,86.35
2019-01-24T00:33:04.614Z,86.17
2019-01-24T00:38:23.282Z,86.18
2019-01-24T00:43:42.063Z,86.79
2019-01-24T00:49:00.522Z,86.09
2019-01-24T00:54:19.598Z,85.52
2019-01-24T00:59:38.161Z,84.97
2019-01-24T01:04:56.743Z,85.47
2019-01-24T01:10:15.398Z,85.60
2019-01-24T01:15:34.710Z,85.32
2019-01-24T01:20:53.142Z,85.61
2019-01-24T01:26:11.818Z,85.32
2019-01-24T01:31:30.271Z,85.72
2019-01-24T01:36:49.147Z,86.34
2019-01-24T01:42:07.916Z,87.36
2019-01-24T01:47:26.995Z,87.29
2019-01-24T01:52:45.354Z,87.12
2019-01-24T01:58:05.154Z,86.70
2019-01-24T02:03:24.130Z,86.74
2019-01-24T02:08:42.994Z,86.70
2019-01-24T02:14:02.179Z,86.34
2019-01-24T02:19:21.052Z,86.10
2019-01-24T02:24:39.625Z,86.11
2019-01-24T02:29:59.616Z,85.75
2019-01-24T02:35:18.284Z,85.53
2019-01-24T02:40:37.361Z,85.27
2019-01-24T02:45:56.143Z,85.98
2019-01-24T02:51:14.908Z,86.02
2019-01-24T02:56:33.879Z,86.45
2019-01-24T03:01:52.956Z,86.23
2019-01-24T03:07:11.525Z,86.22
2019-01-24T03:12:30.191Z,87.00
2019-01-24T03:17:49.688Z,86.66
2019-01-24T03:23:07.940Z,86.34
2019-01-24T03:28:26.913Z,86.15
2019-01-24T03:33:45.481Z,86.15
2019-01-24T03:39:05.169Z,86.92
2019-01-24T03:44:24.040Z,86.75
2019-01-24T03:49:42.407Z,87.28
2019-01-24T03:55:01.481Z,87.69
2019-01-24T04:00:21.496Z,87.65
2019-01-24T04:05:40.049Z,87.86
2019-01-24T04:10:58.612Z,87.66
2019-01-24T04:16:17.085Z,87.28
2019-01-24T04:21:35.540Z,87.24
2019-01-24T04:26:54.514Z,86.91
2019-01-24T04:32:13.388Z,86.74
2019-01-24T04:37:32.057Z,86.49
2019-01-24T04:42:50.623Z,86.53
2019-01-24T04:48:10.622Z,86.30
2019-01-24T04:53:29.294Z,86.52
2019-01-24T04:58:48.061Z,86.32
2019-01-24T05:04:06.623Z,86.05
2019-01-24T05:09:25.306Z,86.07
2019-01-24T05:14:44.172Z,86.19
2019-01-24T05:20:03.971Z,85.93
2019-01-24T05:25:24.575Z,86.20
2019-01-24T05:30:43.151Z,86.43
2019-01-24T05:36:08.360Z,86.63
2019-01-24T05:41:31.688Z,86.76
2019-01-24T05:46:52.163Z,86.70
2019-01-24T05:52:11.026Z,86.39
2019-01-24T05:57:30.201Z,86.17
2019-01-24T06:02:48.976Z,85.93
2019-01-24T06:08:09.800Z,85.22
2019-01-24T06:13:33.692Z,84.89
2019-01-24T06:18:53.175Z,84.52
2019-01-24T06:24:11.941Z,84.35
2019-01-24T06:29:30.687Z,83.97
2019-01-24T06:34:49.588Z,83.65
2019-01-24T06:40:09.179Z,83.64
2019-01-24T06:45:28.162Z,83.69
2019-01-24T06:50:46.515Z,83.60
2019-01-24T06:56:06.827Z,83.51
2019-01-24T07:01:25.385Z,83.66
2019-01-24T07:06:43.852Z,83.61
2019-01-24T07:12:02.531Z,83.66
2019-01-24T07:17:21.907Z,83.74
2019-01-24T07:22:40.163Z,83.54
2019-01-24T07:27:58.933Z,83.55
2019-01-24T07:33:17.091Z,83.43
2019-01-24T07:38:35.554Z,83.36
2019-01-24T07:43:54.130Z,83.42
2019-01-24T07:49:12.586Z,83.49
2019-01-24T07:54:33.302Z,83.23
2019-01-24T07:59:52.996Z,83.25
2019-01-24T08:05:15.156Z,83.43
2019-01-24T08:10:33.926Z,83.56
2019-01-24T08:15:55.551Z,83.36
2019-01-24T08:21:18.118Z,83.38
2019-01-24T08:26:37.293Z,83.69
2019-01-24T08:31:56.166Z,83.49
2019-01-24T08:37:15.452Z,83.37
2019-01-24T08:42:34.836Z,83.31
2019-01-24T08:47:53.102Z,83.34
2019-01-24T08:53:11.556Z,83.57
2019-01-24T08:58:30.641Z,83.03
2019-01-24T09:03:50.021Z,82.93
2019-01-24T09:09:11.556Z,83.26
2019-01-24T09:14:31.142Z,82.85
2019-01-24T09:19:50.018Z,82.63
2019-01-24T09:25:09.199Z,82.66
2019-01-24T09:30:28.178Z,82.16
2019-01-24T09:35:47.353Z,82.36
2019-01-24T09:41:06.225Z,81.44
2019-01-24T09:46:25.303Z,81.21
2019-01-24T09:51:45.101Z,79.91
2019-01-24T09:57:04.485Z,79.47
2019-01-24T10:02:23.720Z,79.05
2019-01-24T10:07:42.699Z,79.41
2019-01-24T10:13:00.387Z,79.34
2019-01-24T10:18:21.778Z,78.82
2019-01-24T10:23:37.421Z,78.80
2019-01-24T10:28:56.085Z,78.13
2019-01-24T10:34:14.546Z,77.88
2019-01-24T10:39:33.116Z,77.51
2019-01-24T10:44:53.123Z,76.83
2019-01-24T10:50:12.305Z,77.50
2019-01-24T10:55:32.193Z,77.43
2019-01-24T11:00:53.019Z,77.40
2019-01-24T11:06:14.340Z,76.78
2019-01-24T11:11:33.518Z,76.79
2019-01-24T11:16:54.135Z,76.48
2019-01-24T11:22:12.299Z,77.06
2019-01-24T11:27:32.188Z,76.76
2019-01-24T11:32:54.031Z,77.53
2019-01-24T11:38:13.689Z,77.48
2019-01-24T11:43:32.912Z,76.80
2019-01-24T11:48:51.575Z,77.17
2019-01-24T11:54:09.933Z,77.29
2019-01-24T11:59:28.814Z,76.97
2019-01-24T12:04:48.087Z,77.07
2019-01-24T12:10:07.682Z,76.43
2019-01-24T12:15:26.348Z,75.75
2019-01-24T12:20:45.679Z,75.87
2019-01-24T12:26:04.094Z,75.42
2019-01-24T12:31:23.376Z,74.88
2019-01-24T12:36:42.146Z,74.72
2019-01-24T12:42:00.690Z,75.38
2019-01-24T12:47:19.483Z,75.25
2019-01-24T12:52:37.724Z,74.61
2019-01-24T12:57:56.618Z,74.68
2019-01-24T13:03:15.179Z,74.47
2019-01-24T13:08:35.181Z,74.76
2019-01-24T13:13:55.185Z,74.70
2019-01-24T13:19:14.154Z,74.06
2019-01-24T13:24:34.171Z,73.92
2019-01-24T13:29:53.030Z,74.73
2019-01-24T13:35:12.209Z,73.68
2019-01-24T13:40:31.507Z,74.43
2019-01-24T13:45:49.548Z,74.24
2019-01-24T13:51:07.907Z,73.13
2019-01-24T13:56:26.165Z,74.63
2019-01-24T14:01:45.447Z,74.02
2019-01-24T14:07:04.698Z,73.03
2019-01-24T14:12:23.404Z,73.31
2019-01-24T14:17:42.094Z,72.26
2019-01-24T14:23:00.530Z,73.09
2019-01-24T14:28:18.391Z,73.53
2019-01-24T14:33:38.584Z,73.47
2019-01-24T14:38:57.252Z,73.75
2019-01-24T14:44:16.128Z,73.27
2019-01-24T14:49:35.418Z,73.69
2019-01-24T14:54:55.027Z,73.87
2019-01-24T15:00:31.178Z,74.17
2019-01-24T15:05:49.539Z,73.93
2019-01-24T15:11:09.235Z,73.43
2019-01-24T15:16:28.821Z,74.46
2019-01-24T15:21:49.028Z,74.18
2019-01-24T15:27:08.207Z,73.89
2019-01-24T15:32:27.603Z,74.58
2019-01-24T15:37:46.157Z,74.79
2019-01-24T15:43:04.631Z,74.89
2019-01-24T15:48:24.108Z,74.34
2019-01-24T15:53:42.879Z,74.20
2019-01-24T15:59:01.694Z,74.16
2019-01-24T16:04:20.119Z,75.10
2019-01-24T16:09:41.248Z,75.06
2019-01-24T16:15:00.524Z,74.54
2019-01-24T16:20:20.113Z,74.76
2019-01-24T16:25:39.191Z,75.03
2019-01-24T16:31:00.087Z,74.89
2019-01-24T16:36:19.690Z,74.26
2019-01-24T16:41:38.471Z,74.08
2019-01-24T16:46:56.630Z,74.47
2019-01-24T16:52:15.503Z,74.51
2019-01-24T16:57:35.300Z,74.53
2019-01-24T17:02:54.065Z,75.11
2019-01-24T17:08:16.492Z,74.64
2019-01-24T17:13:32.120Z,74.58
2019-01-24T17:18:55.192Z,74.62
2019-01-24T17:24:13.655Z,73.99
2019-01-24T17:29:33.150Z,73.46
2019-01-24T17:34:53.594Z,73.93
2019-01-24T17:40:13.771Z,73.47
2019-01-24T17:45:32.109Z,73.94
2019-01-24T17:50:50.482Z,73.75
2019-01-24T17:56:11.089Z,73.90
2019-01-24T18:01:30.075Z,73.60
2019-01-24T18:06:48.641Z,73.59
2019-01-24T18:12:08.941Z,73.05
2019-01-24T18:17:27.505Z,74.02
2019-01-24T18:22:46.690Z,74.13
2019-01-24T18:28:06.482Z,73.13
2019-01-24T18:33:24.701Z,73.50
2019-01-24T18:38:43.919Z,72.95
2019-01-24T18:44:04.528Z,73.44
2019-01-24T18:49:24.636Z,73.19
2019-01-24T18:54:43.690Z,72.67
2019-01-24T19:00:02.281Z,73.11
2019-01-24T19:05:20.950Z,72.89
2019-01-24T19:10:40.435Z,72.92
2019-01-24T19:16:00.331Z,72.30
2019-01-24T19:21:18.793Z,72.37
2019-01-24T19:26:38.181Z,72.94
2019-01-24T19:31:57.731Z,72.82
2019-01-24T19:37:16.131Z,72.75
2019-01-24T19:42:35.211Z,73.56
2019-01-24T19:47:54.204Z,73.82
2019-01-24T19:53:13.160Z,73.41
2019-01-24T19:58:35.321Z,73.53
2019-01-24T20:03:54.186Z,73.37
2019-01-24T20:09:13.725Z,72.65
2019-01-24T20:14:32.704Z,73.23
2019-01-24T20:19:51.625Z,73.15
2019-01-24T20:25:11.527Z,73.65
2019-01-24T20:30:32.132Z,73.10
2019-01-24T20:35:51.931Z,72.69
2019-01-24T20:41:11.215Z,73.19
2019-01-24T20:46:29.676Z,72.99
2019-01-24T20:51:48.038Z,71.74
2019-01-24T20:57:08.547Z,72.38
2019-01-24T21:02:27.319Z,71.29
2019-01-24T21:07:47.156Z,70.62
2019-01-24T21:13:05.714Z,70.69
2019-01-24T21:18:24.448Z,70.47
2019-01-24T21:23:43.630Z,70.02
2019-01-24T21:29:02.505Z,70.35
2019-01-24T21:34:21.681Z,70.18
2019-01-24T21:39:39.944Z,69.44
2019-01-24T21:44:59.534Z,69.83
2019-01-24T21:50:19.224Z,69.65
2019-01-24T21:55:38.096Z,69.55
2019-01-24T22:00:57.174Z,69.45
2019-01-24T22:06:15.543Z,69.70
2019-01-24T22:11:34.002Z,69.77
2019-01-24T22:16:59.231Z,69.45
2019-01-24T22:22:20.558Z,69.83
2019-01-24T22:27:39.427Z,69.54
2019-01-24T22:32:58.407Z,69.96
2019-01-24T22:38:17.492Z,69.03
2019-01-24T22:43:36.165Z,70.30
2019-01-24T22:48:58.299Z,69.91
2019-01-24T22:54:19.690Z,69.59
2019-01-24T22:59:39.697Z,70.68
2019-01-24T23:04:58.398Z,69.13
2019-01-24T23:10:17.713Z,69.63
2019-01-24T23:15:37.170Z,69.25
2019-01-24T23:20:56.152Z,69.26
2019-01-24T23:26:14.913Z,69.97
2019-01-24T23:31:34.196Z,69.33
2019-01-24T23:36:52.726Z,70.08
2019-01-24T23:42:12.158Z,69.18
2019-01-24T23:47:30.919Z,69.93
2019-01-24T23:52:49.794Z,69.70
2019-01-24T23:58:09.079Z,69.91
